Time;durP1;ratioP1;P1;durP2;ratioP2;P2;SDS_P1;SDS_P2;PMS_P1;PMS_P2;Temp;Humidity;BMP_temperature;BMP_pressure;BME280_temperature;BME280_humidity;BME280_pressure;Samples;Min_cycle;Max_cycle;Signal;HPM_P1;HPM_P2
2023/04/03 00:00:09;;;;;;;4.75;3.55;;;;;;;5.91;54.91;99474.13;5088713;28;20041;-70
2023/04/03 00:02:36;;;;;;;5.72;3.70;;;;;;;6.18;54.87;99524.09;5088918;28;20042;-70
2023/04/03 00:05:04;;;;;;;4.13;3.10;;;;;;;6.16;54.80;99520.66;5087542;28;20040;-71
2023/04/03 00:07:31;;;;;;;5.20;4.13;;;;;;;6.14;54.94;99515.44;5070969;28;20263;-70
2023/04/03 00:09:59;;;;;;;6.47;3.60;;;;;;;6.15;54.79;99526.81;5087300;28;20078;-70
2023/04/03 00:12:26;;;;;;;5.57;3.80;;;;;;;6.16;54.71;99525.91;5088816;28;20048;-71
2023/04/03 00:14:52;;;;;;;4.60;3.75;;;;;;;5.99;54.81;99495.78;5088772;28;20043;-70
2023/04/03 00:17:19;;;;;;;4.18;3.55;;;;;;;6.16;54.79;99526.75;5088151;28;20037;-70
2023/04/03 00:19:46;;;;;;;5.35;3.85;;;;;;;6.08;54.85;99508.63;5088087;28;20044;-70
2023/04/03 00:22:13;;;;;;;5.20;3.40;;;;;;;6.14;54.87;99520.69;5088652;28;20032;-70
2023/04/03 00:24:40;;;;;;;5.55;3.50;;;;;;;6.15;54.77;99518.94;5087143;28;20036;-70
2023/04/03 00:27:08;;;;;;;3.88;3.20;;;;;;;6.09;54.79;99515.59;5088156;28;20052;-70
2023/04/03 00:29:35;;;;;;;4.40;3.38;;;;;;;5.35;54.80;99395.41;5088480;28;20119;-70
2023/04/03 00:32:01;;;;;;;3.75;3.03;;;;;;;5.90;54.88;99492.59;5088075;28;20314;-69
2023/04/03 00:34:28;;;;;;;4.85;3.35;;;;;;;6.12;54.97;99524.28;5088387;28;20044;-70
2023/04/03 00:36:55;;;;;;;4.82;3.85;;;;;;;6.10;54.90;99521.72;5086940;28;20050;-70
2023/04/03 00:39:22;;;;;;;5.38;3.75;;;;;;;6.08;55.11;99528.81;5086903;28;20320;-71
2023/04/03 00:41:49;;;;;;;3.78;3.00;;;;;;;6.08;54.95;99524.41;5087056;28;20320;-70
2023/04/03 00:45:02;;;;;;;5.07;3.42;;;;;;;6.08;54.55;99520.91;5087878;28;20102;-70
2023/04/03 00:47:32;;;;;;;4.90;3.35;;;;;;;5.41;55.18;99426.72;5086632;28;20040;-70
2023/04/03 00:49:59;;;;;;;5.40;3.78;;;;;;;6.03;55.24;99526.31;5087795;28;20063;-70
2023/04/03 00:52:30;;;;;;;6.55;3.72;;;;;;;5.49;55.22;99423.00;5087931;28;20051;-71
2023/04/03 00:55:01;;;;;;;4.78;3.10;;;;;;;6.03;55.39;99504.41;5087457;28;20090;-70
2023/04/03 00:57:28;;;;;;;3.38;2.78;;;;;;;2.27;55.13;98865.91;5087920;28;20102;-70
2023/04/03 00:59:58;;;;;;;4.72;3.10;;;;;;;6.03;55.09;99525.47;5087531;28;20044;-70
2023/04/03 01:02:25;;;;;;;4.20;3.25;;;;;;;5.76;55.47;99479.91;5087631;28;20063;-70
2023/04/03 01:04:54;;;;;;;5.55;3.30;;;;;;;5.99;55.49;99532.59;5087898;28;20044;-70
2023/04/03 01:07:23;;;;;;;5.05;3.35;;;;;;;5.98;55.62;99524.75;5086568;28;20312;-70
2023/04/03 01:09:53;;;;;;;3.67;3.25;;;;;;;5.98;55.64;99517.72;5087189;28;20201;-70
2023/04/03 01:12:23;;;;;;;5.47;4.20;;;;;;;5.97;55.66;99521.28;5087004;28;20316;-70
2023/04/03 01:14:52;;;;;;;6.05;3.90;;;;;;;5.95;55.57;99531.00;5087204;28;20044;-70
2023/04/03 01:17:30;;;;;;;3.92;3.20;;;;;;;5.95;55.55;99543.28;5086147;28;20036;-70
2023/04/03 01:20:23;;;;;;;4.20;3.42;;;;;;;5.94;55.67;99539.78;5087513;28;20048;-70
2023/04/03 01:22:59;;;;;;;4.75;3.22;;;;;;;5.96;55.87;99542.38;5086897;28;20036;-69
2023/04/03 01:25:27;;;;;;;4.07;3.45;;;;;;;5.97;55.75;99538.81;5087337;28;20079;-70
2023/04/03 01:27:54;;;;;;;5.88;4.18;;;;;;;5.53;55.85;99456.16;5087232;28;20358;-70
2023/04/03 01:30:22;;;;;;;4.78;3.50;;;;;;;5.98;55.83;99543.19;5086569;28;20044;-70
2023/04/03 01:32:50;;;;;;;4.43;3.47;;;;;;;5.95;55.88;99532.75;5087198;28;20054;-70
2023/04/03 01:35:17;;;;;;;4.07;3.35;;;;;;;5.96;55.80;99537.97;5086366;28;20040;-70
2023/04/03 01:37:44;;;;;;;4.50;3.65;;;;;;;5.95;55.75;99531.00;5086627;28;20044;-70
2023/04/03 01:40:11;;;;;;;4.43;3.75;;;;;;;5.94;55.90;99526.63;5086488;28;20048;-70
2023/04/03 01:42:38;;;;;;;6.20;3.60;;;;;;;5.95;55.89;99531.00;5085470;28;20059;-70
2023/04/03 01:45:05;;;;;;;5.20;3.20;;;;;;;5.96;55.73;99526.59;5086648;28;20320;-70
2023/04/03 01:47:32;;;;;;;4.07;3.10;;;;;;;5.95;55.79;99519.59;5086661;28;20200;-70
2023/04/03 01:50:00;;;;;;;5.00;3.40;;;;;;;5.91;55.95;99521.47;5086586;28;20191;-70
2023/04/03 01:52:28;;;;;;;4.93;3.28;;;;;;;5.90;55.95;99522.38;5086135;28;20142;-70
2023/04/03 01:54:55;;;;;;;4.38;3.30;;;;;;;5.90;56.04;99537.31;5084839;28;20064;-70
2023/04/03 01:57:22;;;;;;;4.45;3.38;;;;;;;5.88;56.03;99532.09;5086221;28;20108;-70
2023/04/03 01:59:49;;;;;;;3.70;2.90;;;;;;;5.88;56.06;99525.97;5085260;28;20040;-70
2023/04/03 02:02:15;;;;;;;4.70;3.30;;;;;;;5.65;55.93;99482.03;5085229;28;20036;-70
2023/04/03 02:04:42;;;;;;;3.72;2.83;;;;;;;5.86;56.09;99536.56;5086028;28;20111;-70
2023/04/03 02:07:11;;;;;;;4.18;3.25;;;;;;;5.87;55.96;99538.28;5086021;28;20052;-70
2023/04/03 02:09:37;;;;;;;5.57;3.55;;;;;;;5.88;56.06;99539.13;5086533;28;20063;-70
2023/04/03 02:12:04;;;;;;;4.60;3.38;;;;;;;5.85;55.94;99531.34;5084990;28;20039;-70
2023/04/03 02:14:31;;;;;;;4.53;3.10;;;;;;;5.83;56.01;99531.41;5086167;28;20060;-70
2023/04/03 02:16:58;;;;;;;4.00;3.20;;;;;;;5.84;56.14;99532.25;5085283;28;20127;-70
2023/04/03 02:19:25;;;;;;;4.78;3.40;;;;;;;5.82;56.21;99542.81;5085030;28;20052;-70
2023/04/03 02:21:51;;;;;;;4.90;3.45;;;;;;;5.81;56.17;99546.38;5085813;28;20036;-70
2023/04/03 02:24:20;;;;;;;5.28;3.85;;;;;;;5.84;56.13;99548.03;5086031;28;20060;-70
2023/04/03 02:26:46;;;;;;;4.28;3.10;;;;;;;5.84;56.12;99543.63;5085803;28;20037;-70
2023/04/03 02:29:13;;;;;;;4.22;3.80;;;;;;;5.82;56.17;99548.09;5085975;28;20296;-70
2023/04/03 02:31:40;;;;;;;4.55;3.83;;;;;;;5.79;56.25;99550.81;5085797;28;20315;-70
2023/04/03 02:34:07;;;;;;;4.90;3.70;;;;;;;5.80;56.26;99554.31;5086195;28;20059;-70
2023/04/03 02:36:33;;;;;;;4.30;3.70;;;;;;;5.79;56.39;99550.81;5085873;28;20040;-70
2023/04/03 02:39:00;;;;;;;4.07;3.40;;;;;;;5.80;56.43;99556.94;5085537;28;20054;-70
2023/04/03 02:41:34;;;;;;;5.00;4.18;;;;;;;5.77;56.43;99553.50;5085656;28;20051;-70
2023/04/03 02:44:01;;;;;;;4.07;3.30;;;;;;;5.81;56.50;99553.41;5085481;28;20044;-70
2023/04/03 02:46:28;;;;;;;4.25;3.75;;;;;;;5.82;56.44;99557.75;5085298;28;20048;-70
2023/04/03 02:48:54;;;;;;;4.85;4.03;;;;;;;5.80;56.66;99552.53;5085491;28;20055;-70
2023/04/03 02:51:22;;;;;;;5.93;3.72;;;;;;;5.80;56.75;99564.81;5085796;28;20372;-71
2023/04/03 02:53:49;;;;;;;5.75;3.53;;;;;;;5.80;56.62;99556.94;5084835;28;20036;-70
2023/04/03 02:56:16;;;;;;;4.10;3.50;;;;;;;5.81;56.71;99559.53;5085377;28;20040;-70
2023/04/03 02:58:45;;;;;;;6.10;3.58;;;;;;;5.83;56.71;99559.47;5085904;28;20059;-70
2023/04/03 03:01:12;;;;;;;5.82;4.32;;;;;;;5.03;56.57;99424.47;5085879;28;20189;-70
2023/04/03 03:03:39;;;;;;;4.65;3.65;;;;;;;5.84;56.53;99563.81;5085337;28;20363;-69
2023/04/03 03:06:08;;;;;;;4.68;3.50;;;;;;;5.83;56.46;99562.09;5088835;28;20044;-69
2023/04/03 03:08:36;;;;;;;4.03;3.20;;;;;;;5.06;56.48;99451.50;5089356;28;20090;-70
2023/04/03 03:11:04;;;;;;;5.93;3.67;;;;;;;5.84;56.52;99562.06;5088978;28;20033;-70
2023/04/03 03:13:32;;;;;;;6.15;4.45;;;;;;;5.84;56.45;99559.41;5089636;28;20044;-69
2023/04/03 03:16:00;;;;;;;4.85;3.92;;;;;;;5.07;56.22;99440.09;5089433;28;20166;-70
2023/04/03 03:18:27;;;;;;;4.55;2.88;;;;;;;5.84;56.29;99567.31;5088380;28;20043;-70
2023/04/03 03:20:54;;;;;;;5.15;3.40;;;;;;;5.83;56.18;99562.09;5089365;28;20300;-70
2023/04/03 03:23:25;;;;;;;5.28;4.15;;;;;;;5.79;56.22;99566.59;5088965;28;20051;-71
2023/04/03 03:25:56;;;;;;;4.95;3.42;;;;;;;5.77;56.13;99565.78;5089334;28;20036;-70
2023/04/03 03:28:23;;;;;;;4.80;3.78;;;;;;;5.78;56.21;99570.13;5089584;28;20048;-70
2023/04/03 03:30:50;;;;;;;4.70;3.42;;;;;;;5.77;56.25;99571.06;5088106;28;20322;-70
2023/04/03 03:33:18;;;;;;;5.75;3.95;;;;;;;5.74;56.20;99573.78;5087947;28;20044;-70
2023/04/03 03:35:45;;;;;;;4.05;3.47;;;;;;;5.74;56.36;99579.91;5089174;28;20304;-70
2023/04/03 03:38:12;;;;;;;5.25;4.00;;;;;;;5.72;56.27;99572.97;5088607;28;20040;-70
2023/04/03 03:40:39;;;;;;;5.05;3.53;;;;;;;5.72;56.25;99583.47;5087702;28;20044;-70
2023/04/03 03:43:06;;;;;;;4.80;3.50;;;;;;;5.73;56.28;99572.91;5088821;28;20213;-69
2023/04/03 03:45:33;;;;;;;6.07;4.50;;;;;;;5.75;56.35;99579.00;5087853;28;20036;-69
2023/04/03 03:48:00;;;;;;;4.45;3.60;;;;;;;5.77;56.17;99573.69;5088669;28;20211;-70
2023/04/03 03:50:28;;;;;;;6.28;3.50;;;;;;;5.76;56.08;99577.22;5089112;28;20232;-69
2023/04/03 03:52:54;;;;;;;5.32;4.18;;;;;;;5.73;56.36;99586.06;5088474;28;20042;-69
2023/04/03 03:55:21;;;;;;;4.38;3.70;;;;;;;5.67;56.26;99573.13;5088476;28;20049;-69
2023/04/03 03:57:48;;;;;;;5.57;3.63;;;;;;;5.51;56.38;99548.22;5087585;28;20127;-69
2023/04/03 04:00:16;;;;;;;4.35;3.63;;;;;;;5.69;56.24;99573.94;5088350;28;20041;-69
2023/04/03 04:02:43;;;;;;;4.15;3.70;;;;;;;5.66;56.41;99581.91;5088351;28;20032;-69
2023/04/03 04:05:10;;;;;;;5.07;3.55;;;;;;;5.64;56.46;99577.59;5088560;28;20055;-69
2023/04/03 04:07:38;;;;;;;3.65;3.25;;;;;;;5.65;56.40;99580.19;5088210;28;20051;-69
2023/04/03 04:10:06;;;;;;;4.13;3.38;;;;;;;5.48;56.33;99542.19;5088711;28;20052;-69
2023/04/03 04:12:32;;;;;;;6.22;4.03;;;;;;;5.67;56.38;99583.63;5088418;28;20072;-69
2023/04/03 04:14:59;;;;;;;5.55;4.38;;;;;;;5.67;56.37;99577.50;5088675;28;20036;-69
2023/04/03 04:17:26;;;;;;;6.53;4.05;;;;;;;5.66;56.35;99575.78;5087168;28;20040;-69
2023/04/03 04:19:52;;;;;;;4.32;3.67;;;;;;;5.64;56.44;99580.25;5088381;28;20055;-69
2023/04/03 04:22:19;;;;;;;5.57;3.53;;;;;;;5.64;56.49;99570.56;5088618;28;20053;-69
2023/04/03 04:24:47;;;;;;;5.10;3.78;;;;;;;5.63;56.40;99579.38;5087443;28;20037;-69
2023/04/03 04:27:15;;;;;;;5.00;3.72;;;;;;;5.62;56.58;99592.56;5088004;28;20200;-69
2023/04/03 04:29:42;;;;;;;5.57;3.63;;;;;;;5.62;56.44;99580.28;5087945;28;20054;-69
2023/04/03 04:32:08;;;;;;;6.57;4.13;;;;;;;5.62;56.49;99587.31;5087568;28;20044;-69
2023/04/03 04:34:35;;;;;;;4.28;3.65;;;;;;;5.61;56.38;99589.09;5088318;28;20048;-69
2023/04/03 04:37:02;;;;;;;4.30;3.42;;;;;;;5.58;56.46;99588.31;5087673;28;20036;-69
2023/04/03 04:39:29;;;;;;;5.68;4.05;;;;;;;5.56;56.55;99595.38;5087390;28;20048;-70
2023/04/03 04:41:57;;;;;;;5.28;3.35;;;;;;;5.57;56.51;99600.59;5087560;28;20062;-70
2023/04/03 04:44:24;;;;;;;5.40;3.22;;;;;;;5.35;56.40;99558.34;5088166;28;20053;-70
2023/04/03 04:46:50;;;;;;;5.90;3.67;;;;;;;5.55;56.49;99599.78;5086752;28;20047;-69
2023/04/03 04:49:17;;;;;;;4.53;3.40;;;;;;;5.54;56.47;99598.06;5086893;28;20043;-69
2023/04/03 04:51:44;;;;;;;4.28;3.08;;;;;;;5.53;56.48;99598.13;5087906;28;20048;-69
2023/04/03 04:54:11;;;;;;;4.35;3.70;;;;;;;5.56;56.56;99605.91;5087955;28;20157;-70
2023/04/03 04:56:38;;;;;;;4.32;2.90;;;;;;;5.41;56.46;99571.28;5087383;28;20045;-70
2023/04/03 04:59:06;;;;;;;3.75;3.30;;;;;;;5.56;56.38;99593.63;5087306;28;20115;-69
2023/04/03 05:01:33;;;;;;;5.53;3.22;;;;;;;5.54;56.32;99602.47;5087474;28;20204;-69
2023/04/03 05:03:59;;;;;;;5.07;3.75;;;;;;;5.52;56.38;99604.28;5087667;28;20042;-69
2023/04/03 05:06:26;;;;;;;4.65;3.78;;;;;;;5.49;56.51;99612.25;5087025;28;20071;-69
2023/04/03 05:08:53;;;;;;;6.78;4.20;;;;;;;5.49;56.43;99607.88;5087624;28;20040;-70
2023/04/03 05:11:20;;;;;;;4.80;3.80;;;;;;;5.49;56.44;99613.13;5086777;28;20086;-69
2023/04/03 05:13:46;;;;;;;5.50;4.28;;;;;;;5.31;56.38;99587.41;5086151;28;20300;-69
2023/04/03 05:16:14;;;;;;;6.00;4.05;;;;;;;5.45;56.38;99614.13;5086107;28;20047;-70
2023/04/03 05:18:41;;;;;;;4.95;4.10;;;;;;;5.44;56.55;99613.25;5087466;28;20044;-69
2023/04/03 05:21:08;;;;;;;4.60;3.53;;;;;;;5.45;56.53;99612.34;5087157;28;20327;-69
2023/04/03 05:23:35;;;;;;;5.22;4.18;;;;;;;5.42;56.27;99625.59;5085931;28;20036;-69
2023/04/03 05:26:02;;;;;;;5.70;4.13;;;;;;;5.44;56.46;99625.53;5087024;28;20036;-69
2023/04/03 05:28:28;;;;;;;6.22;4.10;;;;;;;5.45;56.28;99629.91;5087181;28;20044;-69
2023/04/03 05:30:56;;;;;;;4.18;3.47;;;;;;;5.36;56.40;99610.00;5086646;28;20036;-70
2023/04/03 05:33:25;;;;;;;4.95;3.75;;;;;;;5.06;56.26;99556.59;5086585;28;20045;-69
2023/04/03 05:35:53;;;;;;;6.30;4.53;;;;;;;5.45;56.24;99625.50;5085670;28;20127;-69
2023/04/03 05:38:20;;;;;;;5.95;3.83;;;;;;;5.45;56.07;99617.59;5085519;28;20033;-69
2023/04/03 05:40:47;;;;;;;4.80;3.42;;;;;;;5.45;56.05;99617.59;5086789;28;20185;-69
2023/04/03 05:43:14;;;;;;;4.93;3.40;;;;;;;5.48;56.12;99628.94;5086536;28;20158;-69
2023/04/03 05:45:41;;;;;;;4.82;3.50;;;;;;;5.45;55.90;99630.75;5085485;28;20358;-69
2023/04/03 05:48:07;;;;;;;4.90;3.85;;;;;;;5.24;55.99;99596.38;5086293;28;20040;-69
2023/04/03 05:50:41;;;;;;;4.68;3.38;;;;;;;5.43;55.87;99632.56;5086707;28;20048;-69
2023/04/03 05:53:15;;;;;;;4.75;3.30;;;;;;;5.43;55.75;99629.94;5086744;28;20044;-69
2023/04/03 05:55:41;;;;;;;6.85;4.00;;;;;;;5.42;55.82;99644.00;5086434;28;20177;-69
2023/04/03 05:58:08;;;;;;;5.07;3.70;;;;;;;5.41;56.02;99638.78;5086326;28;20102;-70
2023/04/03 06:00:35;;;;;;;4.90;3.95;;;;;;;5.36;55.87;99644.16;5086313;28;20288;-69
2023/04/03 06:03:02;;;;;;;5.45;3.95;;;;;;;5.38;55.90;99652.00;5085129;28;20177;-70
2023/04/03 06:05:28;;;;;;;4.85;3.58;;;;;;;5.39;56.08;99649.34;5084896;28;20036;-70
2023/04/03 06:07:57;;;;;;;4.97;4.18;;;;;;;5.41;56.14;99644.03;5086480;28;20036;-70
2023/04/03 06:10:24;;;;;;;8.27;4.13;;;;;;;5.43;55.91;99650.97;5085817;28;20079;-70
2023/04/03 06:12:51;;;;;;;5.85;3.85;;;;;;;5.25;55.81;99606.84;5084995;28;20300;-69
2023/04/03 06:15:18;;;;;;;6.28;3.97;;;;;;;5.47;55.93;99645.63;5086213;28;20040;-69
2023/04/03 06:17:45;;;;;;;5.75;4.03;;;;;;;5.48;55.66;99649.97;5085079;28;20052;-69
2023/04/03 06:20:13;;;;;;;9.90;5.25;;;;;;;5.47;55.78;99645.63;5085827;28;20044;-70
2023/04/03 06:22:41;;;;;;;4.40;3.60;;;;;;;5.45;55.68;99650.91;5086070;28;20036;-69
2023/04/03 06:25:10;;;;;;;6.05;4.40;;;;;;;5.39;55.48;99630.94;5085879;28;20048;-70
2023/04/03 06:27:37;;;;;;;6.20;3.58;;;;;;;5.33;55.42;99622.38;5085022;28;20040;-70
2023/04/03 06:30:05;;;;;;;5.05;3.80;;;;;;;5.51;55.48;99649.88;5085628;28;20056;-70
2023/04/03 06:32:32;;;;;;;4.82;3.67;;;;;;;5.54;55.36;99660.31;5084711;28;20050;-70
2023/04/03 06:34:58;;;;;;;5.38;3.83;;;;;;;5.55;55.28;99659.41;5086100;28;20040;-69
2023/04/03 06:37:27;;;;;;;6.28;3.70;;;;;;;5.56;55.46;99669.00;5085720;28;20051;-69
2023/04/03 06:39:54;;;;;;;5.85;4.15;;;;;;;5.56;55.34;99661.97;5085099;28;20055;-70
2023/04/03 06:42:22;;;;;;;6.80;4.20;;;;;;;5.53;55.25;99669.09;5084584;28;20060;-69
2023/04/03 06:44:49;;;;;;;8.40;4.30;;;;;;;5.53;55.43;99672.59;5085594;28;20318;-70
2023/04/03 06:47:17;;;;;;;5.07;3.80;;;;;;;5.54;55.31;99673.44;5085107;28;20271;-70
2023/04/03 06:49:44;;;;;;;6.55;4.22;;;;;;;5.54;55.29;99682.19;5085280;28;20050;-70
2023/04/03 06:52:13;;;;;;;7.68;4.10;;;;;;;5.35;55.24;99649.47;5085282;28;20044;-70
2023/04/03 06:54:40;;;;;;;4.97;3.47;;;;;;;5.55;55.17;99686.56;5085367;28;20055;-70
2023/04/03 06:57:08;;;;;;;6.25;3.80;;;;;;;5.57;55.20;99692.63;5084387;28;20044;-70
2023/04/03 06:59:37;;;;;;;6.55;4.78;;;;;;;5.59;54.96;99684.69;5085548;28;20041;-70
2023/04/03 07:02:03;;;;;;;4.22;3.67;;;;;;;5.59;55.03;99682.06;5085571;28;20300;-70
2023/04/03 07:04:30;;;;;;;6.20;3.30;;;;;;;5.60;54.84;99691.69;5084335;28;20040;-70
2023/04/03 07:06:57;;;;;;;5.45;3.25;;;;;;;5.41;54.54;99650.16;5085339;28;20086;-70
2023/04/03 07:09:24;;;;;;;6.28;3.67;;;;;;;5.59;54.36;99692.59;5085239;28;20055;-70
2023/04/03 07:11:51;;;;;;;5.10;3.47;;;;;;;5.60;54.14;99691.69;5084326;28;20058;-70
2023/04/03 07:14:17;;;;;;;5.63;3.55;;;;;;;5.62;54.13;99697.75;5085414;28;20185;-69
2023/04/03 07:16:46;;;;;;;6.97;3.42;;;;;;;5.61;53.70;99699.50;5085149;28;20048;-70
2023/04/03 07:19:13;;;;;;;4.53;3.75;;;;;;;5.17;53.79;99629.84;5084358;28;20284;-70
2023/04/03 07:21:41;;;;;;;4.28;3.60;;;;;;;5.64;53.71;99716.97;5085352;28;20047;-70
2023/04/03 07:24:08;;;;;;;5.15;3.90;;;;;;;5.60;53.17;99725.84;5085541;28;20048;-70
2023/04/03 07:26:36;;;;;;;6.88;3.80;;;;;;;5.63;53.49;99715.25;5084139;28;20040;-70
2023/04/03 07:29:03;;;;;;;5.65;3.63;;;;;;;5.30;53.19;99661.88;5085351;28;20048;-70
2023/04/03 07:31:29;;;;;;;5.28;3.58;;;;;;;5.63;53.25;99704.72;5085003;28;20215;-70
2023/04/03 07:33:57;;;;;;;4.45;3.47;;;;;;;5.66;53.02;99702.00;5085444;28;20224;-70
2023/04/03 07:36:24;;;;;;;5.93;3.70;;;;;;;5.69;53.31;99694.88;5085285;28;20307;-70
2023/04/03 07:38:51;;;;;;;6.38;3.75;;;;;;;5.75;53.05;99712.25;5084104;28;20094;-70
2023/04/03 07:41:21;;;;;;;6.65;3.72;;;;;;;5.59;52.95;99666.28;5085008;28;20057;-70
2023/04/03 07:43:49;;;;;;;5.45;3.65;;;;;;;5.87;52.84;99705.75;5084812;28;20190;-70
2023/04/03 07:46:17;;;;;;;5.80;3.90;;;;;;;5.93;52.66;99697.69;5085370;28;20085;-69
2023/04/03 07:48:44;;;;;;;5.57;4.38;;;;;;;5.98;52.31;99675.59;5085095;28;20048;-70
2023/04/03 07:51:14;;;;;;;7.95;5.40;;;;;;;6.31;51.92;99710.50;5085494;28;20177;-70
2023/04/03 07:53:41;;;;;;;5.18;3.70;;;;;;;6.02;51.62;99631.63;5087914;28;20078;-70
2023/04/03 07:56:09;;;;;;;5.10;3.70;;;;;;;6.59;51.42;99718.34;5088403;28;20067;-70
2023/04/03 07:58:36;;;;;;;8.05;4.53;;;;;;;6.67;51.00;99718.97;5088299;28;20075;-70
2023/04/03 08:01:03;;;;;;;5.85;4.13;;;;;;;6.94;50.69;99718.97;5087257;28;20051;-70
2023/04/03 08:03:30;;;;;;;6.88;4.30;;;;;;;7.14;50.24;99715.63;5088214;28;20041;-70
2023/04/03 08:06:04;;;;;;;6.28;3.92;;;;;;;7.52;48.88;99706.38;5087369;28;20048;-70
2023/04/03 08:08:32;;;;;;;7.63;3.83;;;;;;;7.15;48.98;99577.66;5088494;28;20049;-70
2023/04/03 08:11:02;;;;;;;5.20;3.55;;;;;;;8.16;48.25;99670.44;5088147;28;20231;-71
2023/04/03 08:13:30;;;;;;;7.35;3.92;;;;;;;8.71;47.63;99691.94;5088550;28;20047;-70
2023/04/03 08:15:58;;;;;;;5.80;3.75;;;;;;;9.01;47.21;99695.03;5088376;28;20044;-71
2023/04/03 08:18:26;;;;;;;6.15;3.97;;;;;;;9.25;46.23;99699.28;5088153;28;20090;-70
2023/04/03 08:20:53;;;;;;;6.80;3.70;;;;;;;8.70;45.64;99547.53;5088418;28;20044;-70
2023/04/03 08:23:20;;;;;;;6.05;3.58;;;;;;;9.71;45.13;99685.78;5087558;28;20047;-71
2023/04/03 08:25:49;;;;;;;7.97;4.07;;;;;;;10.02;44.64;99693.16;5087345;28;20052;-70
2023/04/03 08:28:16;;;;;;;5.25;4.25;;;;;;;9.76;44.33;99623.78;5088002;28;20051;-71
2023/04/03 08:30:43;;;;;;;5.95;3.58;;;;;;;10.36;44.08;99697.69;5087951;28;20198;-73
2023/04/03 08:33:10;;;;;;;4.55;3.50;;;;;;;10.64;43.79;99689.22;5086943;28;20300;-71
2023/04/03 08:35:41;;;;;;;4.72;3.25;;;;;;;10.57;42.40;99657.75;5087059;28;20058;-71
2023/04/03 08:38:08;;;;;;;7.43;3.50;;;;;;;11.02;42.88;99698.78;5087765;28;20044;-71
2023/04/03 08:40:34;;;;;;;7.28;4.63;;;;;;;10.93;42.44;99658.63;5086676;28;20059;-71
2023/04/03 08:43:20;;;;;;;5.50;3.72;;;;;;;11.19;39.88;99677.53;5087596;28;20054;-71
2023/04/03 08:45:51;;;;;;;5.93;3.75;;;;;;;11.19;41.12;99655.47;5087560;28;20046;-71
2023/04/03 08:48:22;;;;;;;5.53;4.05;;;;;;;11.29;41.29;99687.69;5087868;28;20166;-71
2023/04/03 08:50:52;;;;;;;5.13;4.20;;;;;;;10.97;41.61;99679.59;5087242;28;20040;-71
2023/04/03 08:53:23;;;;;;;4.95;3.50;;;;;;;10.76;41.81;99697.44;5087771;28;20304;-70
2023/04/03 08:55:52;;;;;;;6.72;4.03;;;;;;;10.71;42.57;99674.75;5086651;28;20038;-71
2023/04/03 08:58:22;;;;;;;4.95;3.60;;;;;;;10.95;41.95;99699.19;5087425;28;20036;-71
2023/04/03 09:00:52;;;;;;;5.28;3.67;;;;;;;10.96;41.41;99695.59;5087385;28;20047;-71
2023/04/03 09:03:21;;;;;;;5.13;3.70;;;;;;;10.56;41.35;99628.66;5086870;28;20048;-70
2023/04/03 09:05:54;;;;;;;5.53;4.10;;;;;;;10.71;41.10;99690.66;5086354;28;20115;-71
2023/04/03 09:08:25;;;;;;;5.75;4.45;;;;;;;10.49;40.84;99689.06;5086410;28;20044;-71
2023/04/03 09:11:08;;;;;;;5.30;3.65;;;;;;;10.34;39.25;99673.91;5087465;28;20111;-71
2023/04/03 09:13:42;;;;;;;5.65;3.70;;;;;;;10.26;39.21;99665.50;5071401;28;20094;-70
2023/04/03 09:16:20;;;;;;;;;;;;;;;10.17;36.47;99689.78;5086589;28;20028;-68
2023/04/03 09:18:53;;;;;;;7.35;3.90;;;;;;;9.99;41.51;99686.22;5086961;28;19958;-70
2023/04/03 09:21:25;;;;;;;7.32;3.63;;;;;;;10.35;41.23;99701.28;5087273;28;20052;-69
2023/04/03 09:23:54;;;;;;;5.68;4.15;;;;;;;10.53;41.54;99672.06;5086906;28;20041;-69
2023/04/03 09:26:27;;;;;;;6.75;3.00;;;;;;;10.70;39.15;99700.38;5086104;28;20041;-69
2023/04/03 09:29:00;;;;;;;6.72;3.78;;;;;;;10.56;39.36;99703.72;5087125;28;20318;-69
2023/04/03 09:31:37;;;;;;;4.47;2.83;;;;;;;10.44;40.63;99693.72;5085862;28;20269;-69
2023/04/03 09:34:08;;;;;;;4.60;3.38;;;;;;;10.29;39.89;99662.69;5086858;28;20036;-69
2023/04/03 09:36:40;;;;;;;5.07;3.03;;;;;;;10.59;38.48;99692.13;5085817;28;20059;-69
2023/04/03 09:39:12;;;;;;;8.02;4.13;;;;;;;10.35;37.75;99678.28;5085824;28;20209;-69
2023/04/03 09:41:39;;;;;;;4.38;3.08;;;;;;;10.72;39.65;99703.81;5085709;28;20059;-69
2023/04/03 09:44:22;;;;;;;4.13;2.72;;;;;;;10.88;34.82;99702.16;5086811;28;20033;-69
2023/04/03 09:46:49;;;;;;;5.15;2.97;;;;;;;10.41;39.17;99634.72;5085929;28;20123;-69
2023/04/03 09:49:16;;;;;;;6.88;3.58;;;;;;;11.08;39.22;99706.44;5086749;28;20041;-69
2023/04/03 09:51:44;;;;;;;5.43;3.10;;;;;;;11.32;38.69;99691.03;5085356;28;20323;-69
2023/04/03 09:54:40;;;;;;;5.20;3.80;;;;;;;11.55;35.10;99679.19;5085756;28;20046;-69
2023/04/03 09:57:11;;;;;;;7.03;3.10;;;;;;;11.50;38.22;99691.84;5008837;28;20316;-70
2023/04/03 09:59:45;;;;;;;3.97;2.95;;;;;;;11.34;37.01;99698.91;5068960;28;20045;-71
2023/04/03 10:02:28;;;;;;;5.03;3.38;;;;;;;11.09;35.59;99710.78;5086443;28;20063;-71
2023/04/03 10:04:56;;;;;;;5.85;3.55;;;;;;;10.67;39.47;99689.94;5086358;28;20091;-71
2023/04/03 10:07:34;;;;;;;4.47;3.40;;;;;;;10.65;36.83;99713.00;5086455;28;20319;-71
2023/04/03 10:10:16;;;;;;;5.78;3.97;;;;;;;10.55;39.72;99717.91;5086049;28;20201;-71
2023/04/03 10:12:43;;;;;;;6.05;3.72;;;;;;;10.46;40.11;99726.31;5085081;28;20288;-70
2023/04/03 10:15:14;;;;;;;5.50;3.80;;;;;;;10.33;38.25;99721.69;5084996;28;20037;-70
2023/04/03 10:17:53;;;;;;;5.38;3.60;;;;;;;10.30;37.93;99735.94;5085910;28;20041;-69
2023/04/03 10:20:31;;;;;;;4.60;3.42;;;;;;;10.17;37.32;99745.41;5085027;28;20048;-70
2023/04/03 10:23:11;;;;;;;5.68;3.28;;;;;;;9.79;37.86;99708.34;5068739;28;20039;-70
2023/04/03 10:25:42;;;;;;;4.70;3.55;;;;;;;9.67;39.51;99711.53;5084907;28;20093;-69
2023/04/03 10:28:15;;;;;;;4.88;3.40;;;;;;;9.72;39.25;99751.03;5084893;28;20056;-70
2023/04/03 10:30:52;;;;;;;6.13;3.38;;;;;;;9.38;37.91;99714.63;5084921;28;20045;-70
2023/04/03 10:33:35;;;;;;;5.30;3.67;;;;;;;9.28;37.65;99725.59;5086089;28;20044;-70
2023/04/03 10:36:13;;;;;;;5.15;3.92;;;;;;;9.30;38.68;99747.56;5086146;28;20111;-70
2023/04/03 10:38:49;;;;;;;4.00;2.92;;;;;;;9.24;39.14;99742.53;5085842;28;20044;-70
2023/04/03 10:41:21;;;;;;;5.10;3.63;;;;;;;9.17;40.33;99738.41;5085490;28;20119;-70
2023/04/03 10:43:57;;;;;;;6.93;4.18;;;;;;;9.11;39.98;99743.97;5085196;28;20032;-70
2023/04/03 10:46:29;;;;;;;4.95;4.05;;;;;;;8.78;39.26;99703.09;5085167;28;20103;-70
2023/04/03 10:49:14;;;;;;;6.10;4.45;;;;;;;8.59;37.79;99703.00;5084504;28;20101;-70
2023/04/03 10:51:44;;;;;;;;;;;;;;;8.73;36.09;99745.56;5084902;28;20048;-70
2023/04/03 10:54:16;;;;;;;5.65;3.42;;;;;;;8.64;40.19;99744.16;5085446;28;19935;-69
2023/04/03 10:56:48;;;;;;;4.40;3.17;;;;;;;8.65;39.96;99729.19;5085671;28;20040;-70
2023/04/03 10:59:21;;;;;;;4.22;3.17;;;;;;;8.47;39.16;99725.50;5085679;28;20040;-70
2023/04/03 11:01:54;;;;;;;5.60;3.30;;;;;;;8.58;39.38;99739.13;5085267;28;20040;-70
2023/04/03 11:04:24;;;;;;;5.00;3.33;;;;;;;7.92;40.24;99623.91;5085495;28;20047;-70
2023/04/03 11:06:56;;;;;;;5.28;3.55;;;;;;;8.50;39.59;99754.44;5084403;28;20046;-70
2023/04/03 11:09:27;;;;;;;4.63;3.15;;;;;;;8.42;39.60;99739.81;5085468;28;20255;-69
2023/04/03 11:11:59;;;;;;;5.40;3.97;;;;;;;8.36;38.83;99748.84;5084500;28;20124;-70
2023/04/03 11:14:28;;;;;;;6.25;3.88;;;;;;;8.31;39.71;99751.66;5084890;28;20296;-70
2023/04/03 11:17:06;;;;;;;5.53;3.40;;;;;;;8.24;38.21;99760.75;5085705;28;20071;-70
2023/04/03 11:19:39;;;;;;;5.55;3.20;;;;;;;8.15;39.71;99757.63;5084576;28;20036;-70
2023/04/03 11:22:17;;;;;;;6.30;3.40;;;;;;;8.11;38.39;99767.44;5085886;28;20358;-70
2023/04/03 11:24:52;;;;;;;4.57;3.85;;;;;;;8.03;39.19;99751.88;5084366;28;20039;-71
2023/04/03 11:27:25;;;;;;;6.20;3.50;;;;;;;7.94;38.77;99756.66;5088810;28;20067;-70
2023/04/03 11:29:54;;;;;;;7.78;3.55;;;;;;;7.89;39.87;99751.56;5088383;28;20041;-70
2023/04/03 11:32:55;;;;;;;4.43;3.47;;;;;;;7.88;37.35;99744.56;5089467;28;20055;-70
2023/04/03 11:35:23;;;;;;;4.40;3.50;;;;;;;7.35;40.11;99651.63;5087995;28;20036;-71
2023/04/03 11:37:53;;;;;;;7.20;3.92;;;;;;;7.92;39.32;99732.97;5089077;28;20044;-71
2023/04/03 11:40:25;;;;;;;4.80;3.67;;;;;;;7.88;39.08;99726.09;5071438;28;20044;-71
2023/04/03 11:43:03;;;;;;;7.72;4.75;;;;;;;7.89;39.35;99722.53;5088723;28;20327;-70
2023/04/03 11:45:38;;;;;;;4.80;4.30;;;;;;;7.88;38.60;99727.88;5087895;28;20032;-70
2023/04/03 11:48:44;;;;;;;6.03;3.90;;;;;;;7.53;36.78;99669.38;5087792;28;20049;-70
2023/04/03 11:51:46;;;;;;;4.43;3.42;;;;;;;7.84;37.04;99727.13;5088648;28;20090;-70